Ana Sayfa
METAR-TAF:

METAR-TAF

Havaalanları :

Da Nang Uluslararası Havaalanı

Da Nang, Vietnam

Enlem: 16-02N, Boylam: 108-11E, yükseklik: 7 m

Güncel hava durumu gözlemi

Rapor saat 21:00 UTC de 31 dakika önce yapıldı.
Rüzgar güneydan 2 kt
Sıcaklık 18°C
Nem 94%
Basınç 1016 hPa
Görüş mesafesi: 7000 m
1500 ft yükseklikte az bulutlu

METAR: VVDN 242100Z 19002KT 7000 FEW015 18/17 Q1016 NOSIG

Saat: 04:31 (21:31 UTC)

Tahmin

Rapor saat 17:00 UTC de 4 saat ve 31 dakika önce yapıldı.
Ayın 24'si saat 18 UTC'den ayın 25'si saat 18 UTC'ye kadar geçerli Tahmin
Rüzgar batı/güneybatıdan 3 kt
Görüş mesafesi 10 km veya daha fazla
1500 ft yükseklikte az bulutlu
Dönüşüyor
ayın 24'si saat 21 UTC'den ayın 24'si saat 22 UTC'ye kadar
Görüş mesafesi: 3000 m
Pus
Dönüşüyor
ayın 25'si saat 00 UTC'den ayın 25'si saat 02 UTC'ye kadar
Rüzgar doğudan 10 kt
Görüş mesafesi: 7000 m

TAF: VVDN 241700Z 2418/2518 25003KT 9999 FEW015 BECMG 2421/2422 3000 BR BECMG 2500/2502 10010KT 7000 NSW

4.000'den fazla havaalanı için hava durumu gözlemleri ve tahminleri (METAR ve TAF raporları).

Kullanılabilir istasyonlar harita üzerinde sarı ve kırmızı noktalarla gösterilir.

İstasyonun adını görmek için fareyi noktanın üzerinde gezdirin.

Sonrasında hava gözlem ve tahminlerini görmek için tıklayın.

Haritayı değiştirmek için: yaklaştırmak için siyah artı işaretli yeşil düğmeye ve uzaklaştırmak için de eksi işaretli düğmeye hızla tıklayın; bitişik haritalar için yeşil okları kullanın.


METAR-TAF: